Time;durP1;ratioP1;P1;durP2;ratioP2;P2;SDS_P1;SDS_P2;PMS_P1;PMS_P2;Temp;Humidity;BMP_temperature;BMP_pressure;BME280_temperature;BME280_humidity;BME280_pressure;Samples;Min_cycle;Max_cycle;Signal;HPM_P1;HPM_P2
2023/07/21 00:02:19;;;;;;;6.10;3.83;;;15.00;99.90;;;;;;4994643;28;20117;-54
2023/07/21 00:04:45;;;;;;;6.40;4.40;;;14.90;99.90;;;;;;4994913;28;20030;-53
2023/07/21 00:07:11;;;;;;;5.38;3.75;;;14.90;99.90;;;;;;4993563;28;20030;-54
2023/07/21 00:09:36;;;;;;;6.85;4.45;;;14.80;99.90;;;;;;4994668;28;20038;-52
2023/07/21 00:12:03;;;;;;;7.85;4.63;;;14.80;99.90;;;;;;4992886;28;20042;-52
2023/07/21 00:14:30;;;;;;;6.97;4.15;;;14.70;99.90;;;;;;4994295;28;20030;-53
2023/07/21 00:16:55;;;;;;;6.90;4.20;;;14.70;99.90;;;;;;4994865;28;20041;-54
2023/07/21 00:19:21;;;;;;;6.82;4.50;;;14.70;99.90;;;;;;4992985;28;20056;-54
2023/07/21 00:21:47;;;;;;;6.78;4.57;;;14.70;99.90;;;;;;4994199;28;20189;-53
2023/07/21 00:24:13;;;;;;;6.97;4.25;;;14.80;99.90;;;;;;4992786;28;20534;-53
2023/07/21 00:26:39;;;;;;;9.75;4.93;;;14.80;99.90;;;;;;4994061;28;20418;-53
2023/07/21 00:29:06;;;;;;;7.63;4.70;;;14.80;99.90;;;;;;4993136;28;20030;-53
2023/07/21 00:31:32;;;;;;;7.20;4.55;;;14.70;99.90;;;;;;4992661;28;20033;-52
2023/07/21 00:33:57;;;;;;;6.93;4.28;;;14.60;99.90;;;;;;4992363;28;20030;-53
2023/07/21 00:36:23;;;;;;;8.95;4.15;;;14.60;99.90;;;;;;4992661;28;20080;-55
2023/07/21 00:38:49;;;;;;;7.30;4.63;;;14.50;99.90;;;;;;4993516;28;20513;-53
2023/07/21 00:41:15;;;;;;;6.93;4.32;;;14.50;99.90;;;;;;4992683;28;20026;-52
2023/07/21 00:43:41;;;;;;;5.97;3.72;;;14.50;99.90;;;;;;4992019;28;20030;-54
2023/07/21 00:46:09;;;;;;;6.50;4.18;;;14.50;99.90;;;;;;4992527;28;20105;-55
2023/07/21 00:48:36;;;;;;;9.43;4.07;;;14.50;99.90;;;;;;4992751;28;20454;-52
2023/07/21 00:51:03;;;;;;;5.88;4.03;;;14.40;99.90;;;;;;4992447;28;20026;-55
2023/07/21 00:53:30;;;;;;;6.22;4.05;;;14.30;99.90;;;;;;4992122;28;20042;-54
2023/07/21 00:55:55;;;;;;;8.55;4.43;;;14.30;99.90;;;;;;4993795;28;20035;-55
2023/07/21 00:58:23;;;;;;;6.43;4.10;;;14.30;99.90;;;;;;4992356;28;20057;-55
2023/07/21 01:00:49;;;;;;;7.63;5.00;;;14.30;99.90;;;;;;4993714;28;20022;-53
2023/07/21 01:03:17;;;;;;;6.80;4.63;;;14.20;99.90;;;;;;4991869;28;20038;-51
2023/07/21 01:05:47;;;;;;;7.90;4.65;;;14.20;99.90;;;;;;4993479;28;20042;-55
2023/07/21 01:08:13;;;;;;;6.97;4.43;;;14.20;99.90;;;;;;4993782;28;20041;-55
2023/07/21 01:10:40;;;;;;;6.90;4.40;;;14.10;99.90;;;;;;4992168;28;20125;-52
2023/07/21 01:13:07;;;;;;;6.63;4.53;;;14.10;99.90;;;;;;4992193;28;20040;-54
2023/07/21 01:15:37;;;;;;;7.53;4.85;;;14.10;99.90;;;;;;4993536;28;20038;-54
2023/07/21 01:18:04;;;;;;;7.97;4.68;;;14.10;99.90;;;;;;4992479;28;20034;-54
2023/07/21 01:20:31;;;;;;;9.18;4.75;;;14.10;99.90;;;;;;4992534;28;20040;-55
2023/07/21 01:23:20;;;;;;;9.00;5.15;;;14.10;99.90;;;;;;4993398;28;20394;-54
2023/07/21 01:25:46;;;;;;;7.82;5.40;;;14.10;99.90;;;;;;4993551;28;20471;-54
2023/07/21 01:28:14;;;;;;;9.27;5.22;;;14.10;99.90;;;;;;4992561;28;20057;-52
2023/07/21 01:30:41;;;;;;;7.90;4.93;;;14.10;99.90;;;;;;4993434;28;20101;-55
2023/07/21 01:33:09;;;;;;;9.43;5.35;;;14.10;99.90;;;;;;4991631;28;20322;-55
2023/07/21 01:35:37;;;;;;;8.77;5.50;;;14.10;99.90;;;;;;4993518;28;20122;-52
2023/07/21 01:38:04;;;;;;;11.70;6.13;;;14.10;99.90;;;;;;4993419;28;20023;-53
2023/07/21 01:40:30;;;;;;;9.88;6.22;;;14.00;99.90;;;;;;4992030;28;20030;-51
2023/07/21 01:42:56;;;;;;;11.52;6.80;;;14.00;99.90;;;;;;4991615;28;20088;-52
2023/07/21 01:45:22;;;;;;;11.77;6.47;;;14.10;99.90;;;;;;4993166;28;20071;-52
2023/07/21 01:47:48;;;;;;;8.63;5.50;;;14.10;99.90;;;;;;4991846;28;20055;-52
2023/07/21 01:50:18;;;;;;;9.00;5.72;;;14.10;99.90;;;;;;4992024;28;20483;-54
2023/07/21 01:52:48;;;;;;;11.15;6.75;;;14.10;99.90;;;;;;4991460;28;20045;-53
2023/07/21 01:55:27;;;;;;;12.20;6.50;;;14.10;99.90;;;;;;4993393;28;20038;-54
2023/07/21 01:58:00;;;;;;;13.30;7.10;;;14.10;99.90;;;;;;4991837;28;20049;-55
2023/07/21 02:00:32;;;;;;;10.73;7.00;;;14.10;99.90;;;;;;4991764;28;20030;-55
2023/07/21 02:03:00;;;;;;;11.45;6.75;;;14.10;99.90;;;;;;4995697;28;20030;-55
2023/07/21 02:05:26;;;;;;;9.98;6.65;;;14.10;99.90;;;;;;4995744;28;20030;-51
2023/07/21 02:07:54;;;;;;;9.50;6.20;;;14.10;99.90;;;;;;4995590;28;20037;-54
2023/07/21 02:10:19;;;;;;;10.85;7.32;;;14.10;99.90;;;;;;4995480;28;20030;-55
2023/07/21 02:12:52;;;;;;;12.00;7.28;;;14.20;99.90;;;;;;4995256;28;20042;-53
2023/07/21 02:15:18;;;;;;;11.88;6.20;;;14.20;99.90;;;;;;4995292;28;20034;-53
2023/07/21 02:17:44;;;;;;;12.88;7.38;;;14.30;99.90;;;;;;4995171;28;20512;-51
2023/07/21 02:20:10;;;;;;;11.85;7.35;;;14.30;99.90;;;;;;4995647;28;20479;-50
2023/07/21 02:22:39;;;;;;;13.13;7.97;;;14.30;99.90;;;;;;4996380;28;20182;-54
2023/07/21 02:25:06;;;;;;;11.77;7.20;;;14.30;99.90;;;;;;4996348;28;20491;-52
2023/07/21 02:27:32;;;;;;;11.45;7.82;;;14.30;99.90;;;;;;4995329;28;20034;-53
2023/07/21 02:29:58;;;;;;;11.40;7.05;;;14.40;99.90;;;;;;4995124;28;20034;-53
2023/07/21 02:32:24;;;;;;;14.15;7.97;;;14.40;99.90;;;;;;4995945;28;20053;-51
2023/07/21 02:34:50;;;;;;;12.27;7.70;;;14.40;99.90;;;;;;4996673;28;20034;-51
2023/07/21 02:37:15;;;;;;;12.70;7.47;;;14.40;99.90;;;;;;4995171;28;20472;-52
2023/07/21 02:39:41;;;;;;;11.98;7.03;;;14.30;99.90;;;;;;4995173;28;20050;-53
2023/07/21 02:42:07;;;;;;;12.07;7.13;;;14.30;99.90;;;;;;4995037;28;20030;-52
2023/07/21 02:44:33;;;;;;;10.82;6.63;;;14.30;99.90;;;;;;4996443;28;20118;-54
2023/07/21 02:46:59;;;;;;;11.23;6.80;;;14.20;99.90;;;;;;4996305;28;20050;-54
2023/07/21 02:49:25;;;;;;;14.13;7.93;;;14.10;99.90;;;;;;4995017;28;20074;-53
2023/07/21 02:51:51;;;;;;;13.20;7.65;;;14.10;99.90;;;;;;4994866;28;20034;-53
2023/07/21 02:54:18;;;;;;;16.52;7.47;;;14.00;99.90;;;;;;4994383;28;20066;-50
2023/07/21 02:56:44;;;;;;;13.95;7.53;;;14.00;99.90;;;;;;4994449;28;20042;-54
2023/07/21 02:59:23;;;;;;;12.45;6.63;;;14.00;99.90;;;;;;4979617;28;20479;-53
2023/07/21 03:01:54;;;;;;;13.38;7.93;;;14.00;99.90;;;;;;4994489;28;20026;-50
2023/07/21 03:04:26;;;;;;;12.70;7.63;;;14.10;99.90;;;;;;4994383;28;20471;-54
2023/07/21 03:06:57;;;;;;;13.27;7.35;;;14.10;99.90;;;;;;4994668;28;20023;-54
2023/07/21 03:09:22;;;;;;;15.93;7.45;;;14.10;99.90;;;;;;4994616;28;20042;-54
2023/07/21 03:11:48;;;;;;;14.50;7.28;;;14.10;99.90;;;;;;4994033;28;20034;-54
2023/07/21 03:14:37;;;;;;;11.82;7.40;;;14.00;99.90;;;;;;4994329;28;20053;-54
2023/07/21 03:17:03;;;;;;;16.17;8.25;;;14.00;99.90;;;;;;4993595;28;20471;-51
2023/07/21 03:19:30;;;;;;;14.52;8.38;;;14.00;99.90;;;;;;4993975;28;20391;-51
2023/07/21 03:22:00;;;;;;;12.10;7.53;;;14.00;99.90;;;;;;4994123;28;20390;-54
2023/07/21 03:24:27;;;;;;;15.88;7.97;;;13.90;99.90;;;;;;4993972;28;20026;-50
2023/07/21 03:26:53;;;;;;;14.77;8.05;;;13.90;99.90;;;;;;4993945;28;20113;-54
2023/07/21 03:29:21;;;;;;;14.70;9.13;;;13.90;99.90;;;;;;4993826;28;20045;-54
2023/07/21 03:31:48;;;;;;;15.95;8.63;;;13.90;99.90;;;;;;4993526;28;20042;-54
2023/07/21 03:34:14;;;;;;;13.55;8.13;;;13.90;99.90;;;;;;4993694;28;20034;-54
2023/07/21 03:36:40;;;;;;;13.50;8.02;;;13.90;99.90;;;;;;4995062;28;20403;-54
2023/07/21 03:39:06;;;;;;;13.73;7.93;;;13.80;99.90;;;;;;4995074;28;20031;-52
2023/07/21 03:41:31;;;;;;;14.57;8.07;;;13.80;99.90;;;;;;4993383;28;20034;-54
2023/07/21 03:43:58;;;;;;;14.27;7.68;;;13.80;99.90;;;;;;4994574;28;20467;-54
2023/07/21 03:46:24;;;;;;;13.50;7.60;;;13.80;99.90;;;;;;4993548;28;20451;-52
2023/07/21 03:49:11;;;;;;;12.45;7.68;;;13.80;99.90;;;;;;5000768;28;20056;-49
2023/07/21 03:51:40;;;;;;;15.18;8.80;;;13.80;99.90;;;;;;4993766;28;20026;-51
2023/07/21 03:54:08;;;;;;;17.27;8.95;;;13.80;99.90;;;;;;4993178;28;20114;-54
2023/07/21 03:56:34;;;;;;;15.02;7.88;;;13.70;99.90;;;;;;4993477;28;20046;-52
2023/07/21 03:59:01;;;;;;;15.95;7.90;;;13.70;99.90;;;;;;4993336;28;20486;-50
2023/07/21 04:01:27;;;;;;;19.52;8.18;;;13.70;99.90;;;;;;4994552;28;20023;-52
2023/07/21 04:03:53;;;;;;;16.88;9.55;;;13.70;99.90;;;;;;4993650;28;20049;-53
2023/07/21 04:06:20;;;;;;;16.30;8.68;;;13.80;99.90;;;;;;4994648;28;20486;-54
2023/07/21 04:08:46;;;;;;;20.17;8.77;;;13.80;99.90;;;;;;4993492;28;20038;-54
2023/07/21 04:11:11;;;;;;;17.58;9.30;;;13.90;99.90;;;;;;4993597;28;20028;-52
2023/07/21 04:13:37;;;;;;;16.00;8.57;;;13.90;99.90;;;;;;4992731;28;20109;-52
2023/07/21 04:16:03;;;;;;;16.42;8.40;;;14.00;99.90;;;;;;4992937;28;20491;-49
2023/07/21 04:18:28;;;;;;;15.52;8.20;;;14.00;99.90;;;;;;4993080;28;20030;-48
2023/07/21 04:20:54;;;;;;;13.85;8.57;;;14.00;99.90;;;;;;4994665;28;20378;-54
2023/07/21 04:23:20;;;;;;;14.50;8.85;;;14.00;99.90;;;;;;4992442;28;20049;-51
2023/07/21 04:25:46;;;;;;;15.27;8.15;;;14.00;99.90;;;;;;4992364;28;20023;-54
2023/07/21 04:28:13;;;;;;;15.23;8.32;;;14.00;99.90;;;;;;4992807;28;20023;-54
2023/07/21 04:30:39;;;;;;;16.27;8.23;;;14.00;99.90;;;;;;4992966;28;20125;-52
2023/07/21 04:33:04;;;;;;;16.33;8.57;;;14.00;99.90;;;;;;4992518;28;20037;-54
2023/07/21 04:35:31;;;;;;;14.23;8.75;;;14.00;99.90;;;;;;4993012;28;20026;-50
2023/07/21 04:38:00;;;;;;;15.63;8.88;;;14.00;99.90;;;;;;4993021;28;20037;-52
2023/07/21 04:40:30;;;;;;;18.77;8.70;;;14.10;99.90;;;;;;4992443;28;20034;-54
2023/07/21 04:42:56;;;;;;;15.88;8.23;;;14.20;99.90;;;;;;4992650;28;20041;-53
2023/07/21 04:45:21;;;;;;;16.42;8.73;;;14.20;99.90;;;;;;4994342;28;20553;-49
2023/07/21 04:48:00;;;;;;;15.40;8.73;;;14.30;99.90;;;;;;4992958;28;20031;-53
2023/07/21 04:50:26;;;;;;;14.48;7.78;;;14.30;99.90;;;;;;4992505;28;20387;-53
2023/07/21 04:52:52;;;;;;;15.43;9.07;;;14.40;99.90;;;;;;4993622;28;20117;-49
2023/07/21 04:55:19;;;;;;;16.38;9.07;;;14.40;99.90;;;;;;4992595;28;20040;-53
2023/07/21 04:57:47;;;;;;;16.10;8.95;;;14.40;99.90;;;;;;4992650;28;20030;-53
2023/07/21 05:00:14;;;;;;;15.15;9.13;;;14.40;99.90;;;;;;4992748;28;20034;-53
2023/07/21 05:02:41;;;;;;;12.75;8.23;;;14.50;99.90;;;;;;4992474;28;20030;-54
2023/07/21 05:05:07;;;;;;;14.95;9.07;;;14.50;99.90;;;;;;4993233;28;20104;-54
2023/07/21 05:07:38;;;;;;;17.23;8.75;;;14.50;99.90;;;;;;4992757;28;20050;-52
2023/07/21 05:10:05;;;;;;;14.38;8.82;;;14.50;99.90;;;;;;4992518;28;20031;-52
2023/07/21 05:12:31;;;;;;;15.07;9.05;;;14.60;99.90;;;;;;4992349;28;20426;-53
2023/07/21 05:15:10;;;;;;;15.95;9.93;;;14.60;99.90;;;;;;4992757;28;20038;-53
2023/07/21 05:17:40;;;;;;;14.45;9.23;;;14.60;99.90;;;;;;4992091;28;20471;-50
2023/07/21 05:20:24;;;;;;;15.80;8.27;;;14.70;99.90;;;;;;4993524;28;20054;-53
2023/07/21 05:23:07;;;;;;;14.27;8.50;;;14.80;99.90;;;;;;4991960;28;20037;-53
2023/07/21 05:26:00;;;;;;;14.45;9.13;;;14.90;99.90;;;;;;4993068;28;20447;-52
2023/07/21 05:28:30;;;;;;;15.80;9.05;;;15.10;99.90;;;;;;4992566;28;20089;-53
2023/07/21 05:30:55;;;;;;;;;;;15.20;99.90;;;;;;4993099;28;20030;-52
2023/07/21 05:33:25;;;;;;;14.25;8.68;;;15.30;99.90;;;;;;4991992;28;19960;-48
2023/07/21 05:35:51;;;;;;;18.23;9.07;;;15.40;99.90;;;;;;4992639;28;20022;-49
2023/07/21 05:38:22;;;;;;;13.68;8.73;;;15.50;99.90;;;;;;4995381;28;20105;-51
2023/07/21 05:40:57;;;;;;;15.30;8.90;;;15.50;99.90;;;;;;4994660;28;20089;-54
2023/07/21 05:43:24;;;;;;;10.88;7.82;;;15.50;99.90;;;;;;4994238;28;20544;-52
2023/07/21 05:45:51;;;;;;;15.38;8.40;;;15.60;99.90;;;;;;4995428;28;20030;-50
2023/07/21 05:48:16;;;;;;;13.27;8.23;;;15.60;99.90;;;;;;4995064;28;20029;-51
2023/07/21 05:50:45;;;;;;;12.95;8.32;;;15.60;99.90;;;;;;4995221;28;20026;-54
2023/07/21 05:53:11;;;;;;;13.23;8.68;;;15.70;99.90;;;;;;4994660;28;20126;-53
2023/07/21 05:55:43;;;;;;;13.45;8.40;;;15.80;99.90;;;;;;4994951;28;20026;-52
2023/07/21 05:58:14;;;;;;;13.10;9.07;;;16.00;99.90;;;;;;4995086;28;20406;-52
2023/07/21 06:00:39;;;;;;;14.48;8.50;;;16.20;99.90;;;;;;4994590;28;20120;-54
2023/07/21 06:03:06;;;;;;;12.18;7.95;;;16.30;99.90;;;;;;4994343;28;20033;-52
2023/07/21 06:05:32;;;;;;;13.85;8.75;;;16.40;99.90;;;;;;4994775;28;20383;-53
2023/07/21 06:08:11;;;;;;;15.32;8.63;;;16.40;99.90;;;;;;4994933;28;20073;-53
2023/07/21 06:10:57;;;;;;;12.38;7.72;;;16.50;99.90;;;;;;4995772;28;20042;-53
2023/07/21 06:13:43;;;;;;;14.23;8.55;;;16.50;99.90;;;;;;4994091;28;20103;-52
2023/07/21 06:16:47;;;;;;;13.57;8.73;;;16.60;99.90;;;;;;4959068;28;1051891;-54
2023/07/21 06:19:13;;;;;;;12.73;8.05;;;16.70;99.90;;;;;;4995389;28;21008;-53
2023/07/21 06:21:39;;;;;;;13.35;8.02;;;16.80;99.90;;;;;;4995290;28;20034;-54
2023/07/21 06:24:05;;;;;;;22.65;13.55;;;16.90;99.90;;;;;;4995078;28;20027;-52
2023/07/21 06:26:31;;;;;;;21.65;13.45;;;17.00;99.90;;;;;;4995301;28;20031;-53
2023/07/21 06:28:57;;;;;;;20.02;10.63;;;16.90;99.90;;;;;;4994868;28;20038;-54
2023/07/21 06:31:24;;;;;;;14.85;9.02;;;16.90;99.90;;;;;;4978681;28;20053;-54
2023/07/21 06:34:06;;;;;;;16.70;9.50;;;16.90;99.90;;;;;;4995165;28;20030;-54
2023/07/21 06:37:00;;;;;;;12.75;8.43;;;17.00;99.90;;;;;;4994716;28;20034;-54
2023/07/21 06:39:48;;;;;;;13.50;8.80;;;17.20;99.90;;;;;;4996480;28;20045;-54
2023/07/21 06:42:26;;;;;;;11.73;8.00;;;17.20;99.90;;;;;;4994375;28;20033;-49
2023/07/21 06:45:00;;;;;;;13.32;8.30;;;17.30;99.90;;;;;;4994663;28;20501;-52
2023/07/21 06:47:35;;;;;;;12.25;8.43;;;17.30;99.90;;;;;;4994619;28;20026;-53
2023/07/21 06:50:30;;;;;;;12.13;7.07;;;17.40;99.90;;;;;;4994882;28;20034;-54
2023/07/21 06:52:56;;;;;;;11.65;6.03;;;17.50;99.90;;;;;;4994507;28;20394;-52
2023/07/21 06:55:22;;;;;;;11.95;7.43;;;17.50;99.90;;;;;;4995156;28;20046;-54
2023/07/21 06:57:48;;;;;;;10.77;7.00;;;17.60;99.90;;;;;;4994605;28;20655;-54
2023/07/21 07:00:15;;;;;;;10.30;6.05;;;17.60;99.90;;;;;;4994559;28;20466;-55
2023/07/21 07:02:47;;;;;;;10.10;6.85;;;17.60;99.90;;;;;;4994238;28;20034;-53
2023/07/21 07:05:14;;;;;;;9.70;6.57;;;17.70;99.90;;;;;;4996228;28;20023;-52
2023/07/21 07:07:40;;;;;;;7.70;5.93;;;17.80;99.90;;;;;;4995687;28;20069;-53
2023/07/21 07:10:06;;;;;;;7.93;5.68;;;17.80;99.90;;;;;;4995775;28;20557;-55
2023/07/21 07:12:32;;;;;;;9.85;5.78;;;17.80;99.90;;;;;;4993938;28;20267;-55
2023/07/21 07:14:58;;;;;;;8.02;4.90;;;17.90;99.90;;;;;;4994438;28;20475;-55
2023/07/21 07:17:25;;;;;;;10.70;7.18;;;18.00;99.90;;;;;;4994638;28;20097;-55
2023/07/21 07:19:50;;;;;;;10.68;6.13;;;18.20;99.90;;;;;;4995452;28;20117;-55
2023/07/21 07:22:17;;;;;;;9.70;6.30;;;18.30;99.90;;;;;;4995240;28;20038;-52
2023/07/21 07:24:43;;;;;;;8.48;5.78;;;18.40;99.90;;;;;;4994409;28;20037;-55
2023/07/21 07:27:09;;;;;;;8.70;5.78;;;18.50;99.90;;;;;;4995120;28;20113;-55
2023/07/21 07:29:35;;;;;;;7.22;5.00;;;18.50;99.90;;;;;;4995378;28;20041;-54
2023/07/21 07:32:01;;;;;;;8.30;5.40;;;18.60;99.90;;;;;;4995339;28;20169;-53
2023/07/21 07:34:27;;;;;;;9.35;6.10;;;18.70;99.90;;;;;;4994991;28;20042;-55
2023/07/21 07:36:53;;;;;;;7.60;4.78;;;19.00;99.90;;;;;;4995206;28;20030;-54
2023/07/21 07:39:18;;;;;;;9.10;5.63;;;19.10;99.90;;;;;;4994837;28;20045;-55
2023/07/21 07:41:45;;;;;;;7.63;4.93;;;19.20;99.90;;;;;;4994852;28;20521;-52
2023/07/21 07:44:11;;;;;;;8.73;5.57;;;19.30;99.90;;;;;;4994940;28;20030;-54
2023/07/21 07:46:37;;;;;;;10.38;5.32;;;19.40;99.90;;;;;;4995350;28;20026;-54
2023/07/21 07:49:03;;;;;;;6.70;4.70;;;19.50;99.90;;;;;;4994999;28;20102;-54
2023/07/21 07:51:29;;;;;;;7.35;4.35;;;19.70;99.90;;;;;;4995057;28;20069;-52
2023/07/21 07:53:57;;;;;;;5.63;3.53;;;19.80;99.90;;;;;;4994465;28;20120;-52
2023/07/21 07:56:23;;;;;;;6.38;4.22;;;19.80;99.90;;;;;;4994702;28;20085;-55
2023/07/21 07:58:49;;;;;;;7.53;4.70;;;19.80;99.90;;;;;;4994690;28;20073;-53
2023/07/21 08:01:15;;;;;;;7.30;4.28;;;19.60;99.90;;;;;;4994437;28;20038;-54
2023/07/21 08:03:43;;;;;;;10.88;5.47;;;19.60;99.90;;;;;;4993551;28;20038;-52
2023/07/21 08:06:12;;;;;;;7.10;4.28;;;19.70;99.90;;;;;;4994682;28;20030;-55
2023/07/21 08:08:40;;;;;;;7.90;4.43;;;19.60;99.90;;;;;;4994707;28;20041;-54
2023/07/21 08:11:06;;;;;;;8.60;4.40;;;19.60;99.90;;;;;;4994730;28;20041;-55
2023/07/21 08:13:32;;;;;;;7.07;4.20;;;19.60;99.90;;;;;;4994306;28;20034;-53
2023/07/21 08:15:58;;;;;;;7.60;4.45;;;19.60;99.90;;;;;;4994561;28;20125;-55
2023/07/21 08:18:24;;;;;;;7.18;4.03;;;19.60;99.90;;;;;;4994402;28;20070;-54
2023/07/21 08:20:51;;;;;;;7.03;4.47;;;19.70;99.90;;;;;;4994659;28;20054;-51
2023/07/21 08:23:16;;;;;;;7.57;3.90;;;20.00;99.90;;;;;;4994165;28;20505;-53
2023/07/21 08:25:42;;;;;;;6.53;3.67;;;20.00;99.90;;;;;;4994578;28;20065;-53
2023/07/21 08:28:08;;;;;;;7.60;4.15;;;20.20;99.90;;;;;;4994400;28;20026;-50
2023/07/21 08:30:35;;;;;;;6.80;4.20;;;20.30;99.90;;;;;;4994402;28;20053;-51
2023/07/21 08:33:02;;;;;;;6.53;3.63;;;20.20;99.90;;;;;;4992606;28;20475;-51
2023/07/21 08:35:27;;;;;;;5.82;3.35;;;20.20;99.90;;;;;;4994313;28;20073;-54
2023/07/21 08:37:54;;;;;;;5.47;3.35;;;20.20;99.90;;;;;;4992946;28;20487;-53
2023/07/21 08:40:22;;;;;;;6.47;3.50;;;20.30;99.90;;;;;;4994156;28;20077;-53
2023/07/21 08:42:49;;;;;;;4.63;3.35;;;20.50;99.90;;;;;;4993576;28;20026;-53
2023/07/21 08:45:15;;;;;;;8.30;3.92;;;20.60;99.90;;;;;;4993309;28;20430;-53
2023/07/21 08:47:41;;;;;;;7.35;3.80;;;20.70;99.90;;;;;;4993908;28;20026;-49
2023/07/21 08:50:07;;;;;;;6.07;3.20;;;20.60;99.90;;;;;;4994947;28;20057;-52
2023/07/21 08:52:33;;;;;;;4.85;3.25;;;20.50;99.90;;;;;;4994503;28;20030;-53
2023/07/21 08:55:00;;;;;;;6.75;3.75;;;20.50;99.90;;;;;;4994581;28;20133;-54
2023/07/21 08:57:25;;;;;;;9.30;3.85;;;20.50;99.90;;;;;;4994202;28;20096;-50
2023/07/21 08:59:54;;;;;;;7.88;4.25;;;20.50;99.90;;;;;;4994297;28;20038;-54
2023/07/21 09:02:40;;;;;;;12.40;6.88;;;20.70;99.90;;;;;;4993410;28;20037;-54
2023/07/21 09:05:06;;;;;;;5.82;3.47;;;20.90;99.90;;;;;;4993948;28;20031;-53
2023/07/21 09:07:34;;;;;;;9.95;5.18;;;20.90;99.90;;;;;;4993953;28;20048;-51
2023/07/21 09:09:59;;;;;;;9.00;5.25;;;20.90;99.90;;;;;;4992869;28;20394;-54
2023/07/21 09:12:34;;;;;;;6.22;4.22;;;20.90;99.90;;;;;;4993614;28;20037;-53
2023/07/21 09:15:07;;;;;;;7.20;4.47;;;20.90;99.90;;;;;;4993788;28;20034;-53
2023/07/21 09:17:33;;;;;;;8.27;5.05;;;20.90;99.90;;;;;;4992597;28;20064;-53
2023/07/21 09:19:58;;;;;;;10.75;5.50;;;20.90;99.90;;;;;;4993994;28;20034;-51
2023/07/21 09:22:24;;;;;;;8.25;5.75;;;20.90;99.90;;;;;;4993428;28;20030;-54
2023/07/21 09:24:51;;;;;;;9.43;4.78;;;20.90;99.90;;;;;;4994045;28;20022;-54
2023/07/21 09:27:18;;;;;;;9.52;5.13;;;20.90;99.90;;;;;;4993668;28;20470;-54
2023/07/21 09:29:45;;;;;;;9.90;4.85;;;20.90;99.90;;;;;;4992580;28;20042;-54
2023/07/21 09:32:15;;;;;;;8.30;5.07;;;20.90;99.80;;;;;;4993234;28;20117;-54
2023/07/21 09:35:00;;;;;;;7.75;5.07;;;20.70;99.90;;;;;;4993262;28;20030;-50
2023/07/21 09:37:30;;;;;;;12.02;5.93;;;20.70;99.90;;;;;;4993471;28;20040;-54
2023/07/21 09:40:10;;;;;;;11.32;6.55;;;20.80;99.90;;;;;;4993212;28;20027;-53
2023/07/21 09:42:39;;;;;;;8.40;5.07;;;21.10;99.80;;;;;;4992703;28;20030;-54
2023/07/21 09:45:06;;;;;;;7.43;4.75;;;21.20;99.90;;;;;;4993314;28;20027;-54
2023/07/21 09:47:31;;;;;;;8.95;5.60;;;21.10;99.20;;;;;;4993707;28;20038;-53
2023/07/21 09:50:01;;;;;;;8.00;4.20;;;21.30;99.30;;;;;;4993421;28;20026;-53
2023/07/21 09:52:28;;;;;;;4.28;2.78;;;21.30;99.90;;;;;;4992924;28;20039;-50
2023/07/21 09:55:10;;;;;;;6.28;2.95;;;21.30;99.30;;;;;;4993324;28;20094;-54
2023/07/21 09:57:45;;;;;;;7.13;3.97;;;21.60;98.10;;;;;;4993331;28;20034;-52
2023/07/21 10:00:14;;;;;;;6.25;3.60;;;21.80;96.40;;;;;;4992959;28;20041;-53
2023/07/21 10:02:45;;;;;;;6.90;4.47;;;21.90;97.00;;;;;;4992571;28;20053;-54
2023/07/21 10:05:10;;;;;;;6.05;3.90;;;22.00;96.70;;;;;;4991845;28;20041;-52
2023/07/21 10:07:46;;;;;;;5.85;3.65;;;22.10;96.50;;;;;;4992823;28;20030;-53
2023/07/21 10:10:12;;;;;;;8.80;4.45;;;22.20;95.20;;;;;;4993171;28;20038;-54
2023/07/21 10:12:52;;;;;;;8.73;5.13;;;22.20;96.80;;;;;;4992528;28;20038;-54
2023/07/21 10:15:20;;;;;;;5.53;2.85;;;22.30;95.10;;;;;;4992901;28;20041;-53
2023/07/21 10:18:10;;;;;;;8.32;4.95;;;22.40;96.00;;;;;;4993112;28;20041;-52
2023/07/21 10:20:44;;;;;;;5.53;3.40;;;22.30;95.60;;;;;;4992980;28;20521;-53
2023/07/21 10:23:22;;;;;;;5.57;3.22;;;22.50;95.50;;;;;;4993732;28;20479;-54
2023/07/21 10:25:50;;;;;;;6.57;3.03;;;22.50;94.70;;;;;;4997148;28;20541;-54
2023/07/21 10:28:30;;;;;;;3.15;1.80;;;22.60;94.90;;;;;;4996313;28;20065;-54
2023/07/21 10:31:21;;;;;;;3.20;2.05;;;22.70;94.90;;;;;;4996282;28;20402;-52
2023/07/21 10:34:32;;;;;;;2.85;1.63;;;22.60;93.60;;;;;;4995241;28;20150;-52
2023/07/21 10:37:02;;;;;;;4.55;2.45;;;22.50;93.80;;;;;;4974438;28;20530;-54
2023/07/21 10:39:31;;;;;;;5.97;2.42;;;22.40;93.60;;;;;;4994073;28;20133;-54
2023/07/21 10:42:00;;;;;;;;;;;22.40;93.00;;;;;;4997025;28;20034;-54
2023/07/21 10:44:37;;;;;;;3.20;1.75;;;22.50;94.30;;;;;;4996733;28;20000;-52
2023/07/21 10:47:05;;;;;;;4.15;2.25;;;22.70;93.60;;;;;;4996254;28;20035;-53
2023/07/21 10:49:30;;;;;;;2.53;1.55;;;22.70;91.80;;;;;;4996352;28;20416;-54
2023/07/21 10:51:57;;;;;;;4.20;1.77;;;22.70;92.10;;;;;;4995983;28;20495;-52
2023/07/21 10:54:22;;;;;;;2.13;1.50;;;22.50;92.10;;;;;;4996398;28;20041;-53
2023/07/21 10:56:51;;;;;;;2.90;1.80;;;22.50;93.00;;;;;;4996098;28;20479;-54
2023/07/21 10:59:18;;;;;;;2.45;1.70;;;22.30;93.10;;;;;;4995908;28;20129;-52
2023/07/21 11:01:46;;;;;;;3.53;1.83;;;22.30;92.80;;;;;;4995692;28;20410;-53
2023/07/21 11:04:16;;;;;;;3.42;1.88;;;22.30;93.40;;;;;;4995640;28;20042;-54
2023/07/21 11:06:43;;;;;;;3.13;1.60;;;22.30;92.90;;;;;;4996156;28;20023;-54
2023/07/21 11:09:11;;;;;;;3.50;2.05;;;22.40;93.10;;;;;;4996655;28;20041;-52
2023/07/21 11:11:41;;;;;;;5.15;2.95;;;22.70;92.00;;;;;;4995706;28;20507;-54
2023/07/21 11:14:17;;;;;;;4.78;2.30;;;22.80;91.10;;;;;;4995336;28;20034;-52
2023/07/21 11:17:03;;;;;;;3.75;2.20;;;22.60;91.00;;;;;;4995723;28;20042;-52
2023/07/21 11:19:30;;;;;;;4.85;2.60;;;22.50;90.70;;;;;;4995452;28;20562;-50
2023/07/21 11:21:56;;;;;;;4.18;2.45;;;22.40;91.40;;;;;;4995689;28;20442;-52
2023/07/21 11:24:24;;;;;;;3.72;2.45;;;22.40;91.00;;;;;;4995400;28;20038;-53
2023/07/21 11:26:53;;;;;;;8.07;4.45;;;22.30;91.50;;;;;;4995407;28;20038;-50
2023/07/21 11:29:19;;;;;;;3.08;2.00;;;22.40;92.00;;;;;;4995788;28;20046;-53
2023/07/21 11:31:44;;;;;;;4.25;2.60;;;22.50;92.10;;;;;;4995767;28;20038;-53
2023/07/21 11:34:24;;;;;;;5.30;2.45;;;22.50;91.90;;;;;;4994520;28;20392;-52
2023/07/21 11:36:58;;;;;;;6.05;3.22;;;22.50;91.60;;;;;;4995889;28;20120;-53
2023/07/21 11:39:27;;;;;;;3.85;2.10;;;22.50;92.10;;;;;;4995445;28;20041;-52
2023/07/21 11:41:53;;;;;;;2.58;1.70;;;22.50;91.40;;;;;;4993929;28;20510;-51
2023/07/21 11:44:25;;;;;;;3.97;2.00;;;22.70;92.80;;;;;;4995522;28;20032;-50
2023/07/21 11:47:04;;;;;;;4.93;2.03;;;22.70;92.00;;;;;;4995433;28;20037;-52
2023/07/21 11:49:31;;;;;;;4.65;2.30;;;22.70;91.30;;;;;;4995935;28;20163;-54
2023/07/21 11:52:02;;;;;;;6.55;2.72;;;22.80;91.30;;;;;;4995050;28;20030;-53
2023/07/21 11:54:30;;;;;;;4.38;2.15;;;23.00;91.60;;;;;;4995290;28;20038;-50
2023/07/21 11:56:57;;;;;;;3.55;1.70;;;23.40;90.30;;;;;;4995020;28;20110;-52
2023/07/21 11:59:24;;;;;;;2.17;1.30;;;23.50;87.40;;;;;;4993803;28;20038;-53
2023/07/21 12:01:50;;;;;;;3.75;2.00;;;23.60;82.60;;;;;;4995070;28;20026;-53
2023/07/21 12:04:21;;;;;;;2.67;1.40;;;23.70;82.10;;;;;;4994518;28;20044;-53
2023/07/21 12:06:47;;;;;;;2.22;1.25;;;23.70;82.00;;;;;;4994956;28;20125;-53
2023/07/21 12:09:12;;;;;;;3.42;2.10;;;23.40;82.60;;;;;;4994872;28;20617;-54
2023/07/21 12:11:38;;;;;;;4.35;2.90;;;23.40;83.90;;;;;;4994902;28;20057;-54
2023/07/21 12:14:04;;;;;;;3.42;2.05;;;23.30;83.40;;;;;;4994660;28;20035;-53
2023/07/21 12:16:31;;;;;;;5.03;2.42;;;23.20;82.50;;;;;;4994647;28;20034;-54
2023/07/21 12:18:57;;;;;;;4.47;2.00;;;23.10;82.60;;;;;;4993103;28;20129;-54
2023/07/21 12:21:26;;;;;;;2.90;1.75;;;23.00;83.40;;;;;;4994442;28;20116;-51
2023/07/21 12:23:52;;;;;;;3.47;1.88;;;23.00;84.80;;;;;;4993981;28;20289;-54
2023/07/21 12:26:21;;;;;;;3.92;2.33;;;22.90;85.10;;;;;;4994597;28;20089;-53
2023/07/21 12:28:53;;;;;;;2.88;1.67;;;23.00;85.70;;;;;;4992740;28;20038;-54
2023/07/21 12:31:20;;;;;;;3.28;1.75;;;23.20;85.80;;;;;;4993854;28;20479;-51
2023/07/21 12:33:47;;;;;;;3.50;2.08;;;23.10;84.00;;;;;;4992546;28;20038;-54
2023/07/21 12:36:14;;;;;;;2.47;1.38;;;23.20;85.10;;;;;;4994602;28;20030;-54
2023/07/21 12:38:43;;;;;;;1.80;1.10;;;23.30;84.30;;;;;;4994455;28;20027;-54
2023/07/21 12:41:09;;;;;;;;;;;23.20;83.90;;;;;;4994820;28;20455;-51
2023/07/21 12:43:35;;;;;;;2.60;1.70;;;23.30;81.20;;;;;;4994093;28;19963;-52
2023/07/21 12:46:01;;;;;;;2.75;1.50;;;23.20;81.80;;;;;;4992589;28;20062;-51
2023/07/21 12:48:28;;;;;;;3.78;1.95;;;23.00;81.70;;;;;;4994177;28;20054;-54
2023/07/21 12:50:54;;;;;;;3.97;2.10;;;22.80;83.80;;;;;;4993811;28;20058;-54
2023/07/21 12:53:20;;;;;;;3.17;1.90;;;22.50;85.40;;;;;;4993697;28;20077;-52